Time;durP1;ratioP1;P1;durP2;ratioP2;P2;SDS_P1;SDS_P2;PMS_P1;PMS_P2;Temp;Humidity;BMP_temperature;BMP_pressure;BME280_temperature;BME280_humidity;BME280_pressure;Samples;Min_cycle;Max_cycle;Signal;HPM_P1;HPM_P2
2021/08/21 02:47:42;;;;;;;9.80;5.72;;;18.80;96.20;;;;;;4784603;29;20052;-79
2021/08/21 02:50:09;;;;;;;7.80;6.13;;;18.80;96.30;;;;;;4793330;30;20058;-77
2021/08/21 02:52:36;;;;;;;11.10;6.27;;;18.80;96.20;;;;;;4778615;30;20031;-79
2021/08/21 02:55:02;;;;;;;8.98;5.53;;;18.70;96.40;;;;;;4793587;29;20044;-79
2021/08/21 02:57:30;;;;;;;10.27;5.70;;;18.60;96.30;;;;;;4778687;30;20027;-77
2021/08/21 02:59:56;;;;;;;10.00;6.03;;;18.60;96.30;;;;;;4778424;30;20335;-79
2021/08/21 03:02:30;;;;;;;9.43;6.03;;;18.60;96.40;;;;;;4779796;30;20319;-79
2021/08/21 03:04:56;;;;;;;14.38;6.07;;;18.50;96.60;;;;;;4793528;29;20058;-79
2021/08/21 03:07:26;;;;;;;10.25;5.30;;;18.50;96.60;;;;;;4778981;30;20066;-79
2021/08/21 03:09:55;;;;;;;10.73;6.63;;;18.40;96.50;;;;;;4780530;30;20116;-79
2021/08/21 03:12:31;;;;;;;9.32;6.28;;;18.40;96.60;;;;;;4782411;30;20028;-79
2021/08/21 03:15:02;;;;;;;10.38;6.47;;;18.40;96.60;;;;;;4781865;30;20126;-79
2021/08/21 03:17:28;;;;;;;9.85;6.38;;;18.30;96.60;;;;;;4809046;29;20105;-79
2021/08/21 03:19:54;;;;;;;10.63;6.10;;;18.30;96.60;;;;;;4814813;29;20096;-79
2021/08/21 03:22:21;;;;;;;;;;;18.30;96.70;;;;;;4800351;29;20030;-79
2021/08/21 03:24:48;;;;;;;11.43;6.70;;;18.20;96.80;;;;;;4800893;29;20197;-79
2021/08/21 03:27:14;;;;;;;13.82;6.30;;;18.20;96.90;;;;;;4815131;29;20102;-79
2021/08/21 03:29:43;;;;;;;9.05;6.32;;;18.10;97.20;;;;;;4800440;29;20042;-79
2021/08/21 03:32:16;;;;;;;12.88;7.05;;;18.10;97.10;;;;;;4814705;29;20122;-77
2021/08/21 03:34:43;;;;;;;9.00;6.32;;;18.10;97.10;;;;;;4815161;29;20342;-79
2021/08/21 03:37:09;;;;;;;;;;;18.00;97.00;;;;;;4815370;29;20027;-79
2021/08/21 03:39:40;;;;;;;11.38;6.85;;;18.00;97.10;;;;;;4799900;30;19917;-79
2021/08/21 03:42:08;;;;;;;10.77;7.00;;;18.00;97.20;;;;;;4800377;29;20027;-79
2021/08/21 03:44:34;;;;;;;14.05;7.00;;;18.00;97.30;;;;;;4799997;29;20031;-79
2021/08/21 03:47:00;;;;;;;9.88;7.03;;;17.90;97.40;;;;;;4826509;29;20339;-79
2021/08/21 03:49:26;;;;;;;10.27;7.70;;;17.90;97.70;;;;;;4835888;29;20034;-79
2021/08/21 03:51:52;;;;;;;10.75;6.28;;;17.90;97.80;;;;;;4835994;29;20076;-79
2021/08/21 03:54:22;;;;;;;10.25;6.38;;;17.90;97.70;;;;;;4822065;29;20026;-80
2021/08/21 03:56:50;;;;;;;11.05;6.07;;;17.90;97.60;;;;;;4836138;29;20241;-79
2021/08/21 03:59:15;;;;;;;10.07;6.47;;;17.90;97.50;;;;;;4820978;29;20035;-79
2021/08/21 04:01:48;;;;;;;12.45;7.43;;;17.90;97.50;;;;;;4821248;29;20038;-79
2021/08/21 04:04:23;;;;;;;9.65;6.70;;;17.90;97.50;;;;;;4821842;29;20027;-79
2021/08/21 04:06:50;;;;;;;9.50;6.55;;;17.90;97.50;;;;;;4837081;29;20026;-79
2021/08/21 04:09:21;;;;;;;9.77;6.70;;;18.00;97.50;;;;;;4836211;29;20034;-79
2021/08/21 04:11:50;;;;;;;14.27;7.38;;;18.00;97.60;;;;;;4821273;29;20030;-79
2021/08/21 04:14:16;;;;;;;11.48;6.68;;;18.00;97.70;;;;;;4835758;29;20212;-79
2021/08/21 04:16:43;;;;;;;11.25;7.30;;;18.00;97.80;;;;;;4835673;29;20026;-79
2021/08/21 04:19:09;;;;;;;12.65;7.70;;;18.00;97.70;;;;;;4835775;29;20046;-79
2021/08/21 04:21:40;;;;;;;9.70;6.55;;;18.10;97.70;;;;;;4820757;29;20033;-79
2021/08/21 04:24:13;;;;;;;9.40;6.78;;;18.20;97.60;;;;;;4821820;29;20034;-79
2021/08/21 04:26:41;;;;;;;12.75;6.32;;;18.30;97.60;;;;;;4820357;29;20229;-79
2021/08/21 04:29:07;;;;;;;8.48;6.85;;;18.30;97.60;;;;;;4820049;29;20026;-77
2021/08/21 04:31:35;;;;;;;15.05;7.30;;;18.30;97.60;;;;;;4819673;29;20325;-77
2021/08/21 04:34:01;;;;;;;;;;;18.40;97.50;;;;;;4833383;29;20349;-77
2021/08/21 04:36:27;;;;;;;8.43;6.40;;;18.40;97.40;;;;;;4806440;29;19955;-77
2021/08/21 04:38:54;;;;;;;8.82;5.95;;;18.40;97.30;;;;;;4816277;29;20352;-79
2021/08/21 04:41:20;;;;;;;10.35;7.47;;;18.50;97.40;;;;;;4828404;29;20106;-79
2021/08/21 04:43:47;;;;;;;;;;;18.60;97.60;;;;;;4837955;29;20032;-77
2021/08/21 04:46:13;;;;;;;11.87;6.73;;;18.60;97.50;;;;;;4815528;29;19933;-79
2021/08/21 04:48:41;;;;;;;7.85;6.18;;;18.70;97.50;;;;;;4832684;29;20127;-79
2021/08/21 04:51:07;;;;;;;12.48;6.97;;;18.80;97.40;;;;;;4826627;29;20050;-79
2021/08/21 04:53:35;;;;;;;12.20;6.60;;;18.90;97.40;;;;;;4809318;29;20087;-78
2021/08/21 04:56:00;;;;;;;8.70;6.38;;;19.00;97.10;;;;;;4804961;29;20054;-79
2021/08/21 04:58:28;;;;;;;9.20;6.30;;;19.10;96.90;;;;;;4819087;29;20038;-79
2021/08/21 05:00:54;;;;;;;8.40;6.32;;;19.20;96.90;;;;;;4813695;29;20397;-79
2021/08/21 05:03:23;;;;;;;10.88;6.65;;;19.30;96.60;;;;;;4813690;29;20314;-78
2021/08/21 05:05:51;;;;;;;11.15;7.05;;;19.50;96.50;;;;;;4824712;29;20026;-79
2021/08/21 05:08:17;;;;;;;14.55;5.60;;;19.50;96.40;;;;;;4814549;29;20071;-79
2021/08/21 05:10:48;;;;;;;12.40;6.20;;;19.60;96.20;;;;;;4844766;29;20050;-79
2021/08/21 05:13:15;;;;;;;7.63;5.50;;;19.70;96.00;;;;;;4835480;29;20079;-79
2021/08/21 05:15:41;;;;;;;10.65;6.07;;;19.80;95.90;;;;;;4826532;29;20338;-79
2021/08/21 05:18:44;;;;;;;10.80;5.43;;;19.80;95.80;;;;;;4799177;29;20104;-79
2021/08/21 05:21:25;;;;;;;9.13;6.03;;;19.80;95.70;;;;;;4811875;29;20030;-79
2021/08/21 05:23:51;;;;;;;11.52;6.82;;;19.90;95.60;;;;;;4823870;29;20105;-79
2021/08/21 05:26:17;;;;;;;10.13;5.93;;;20.00;95.50;;;;;;4819308;29;20037;-79
2021/08/21 05:28:43;;;;;;;8.32;5.68;;;20.10;95.20;;;;;;4826201;29;20103;-79
2021/08/21 05:31:09;;;;;;;8.95;5.93;;;20.20;95.00;;;;;;4820187;29;20022;-79
2021/08/21 05:33:35;;;;;;;9.32;5.50;;;20.20;94.90;;;;;;4815477;29;20054;-79
2021/08/21 05:36:01;;;;;;;7.60;5.43;;;20.30;94.70;;;;;;4820041;29;20361;-79
2021/08/21 05:38:26;;;;;;;10.82;5.40;;;20.40;94.50;;;;;;4816542;29;20030;-78
2021/08/21 05:40:52;;;;;;;6.93;5.60;;;20.40;94.20;;;;;;4816394;29;20019;-79
2021/08/21 05:43:18;;;;;;;8.68;6.47;;;20.60;94.10;;;;;;4825353;29;20236;-78
2021/08/21 05:45:44;;;;;;;9.20;6.32;;;20.70;93.90;;;;;;4814207;29;20391;-78
2021/08/21 05:48:09;;;;;;;8.02;5.35;;;20.70;93.70;;;;;;4833807;29;20112;-79
2021/08/21 05:50:35;;;;;;;13.75;5.93;;;20.80;93.30;;;;;;4835252;29;20353;-79
2021/08/21 05:53:01;;;;;;;8.75;5.80;;;20.90;93.40;;;;;;4848290;29;20034;-79
2021/08/21 05:55:28;;;;;;;7.75;5.28;;;20.90;93.10;;;;;;4820434;29;20034;-79
2021/08/21 05:57:59;;;;;;;7.28;5.05;;;21.00;92.80;;;;;;4814423;29;20026;-79
2021/08/21 06:00:25;;;;;;;12.13;5.88;;;21.10;92.60;;;;;;4826266;29;20037;-78
2021/08/21 06:02:51;;;;;;;10.05;5.20;;;21.10;92.40;;;;;;4800900;29;20076;-78
2021/08/21 06:05:16;;;;;;;7.97;4.93;;;21.10;92.20;;;;;;4813617;29;20022;-79
2021/08/21 06:07:44;;;;;;;9.05;4.68;;;21.30;92.00;;;;;;4818619;29;20027;-79
2021/08/21 06:10:14;;;;;;;9.75;4.97;;;21.30;91.60;;;;;;4833956;29;20102;-79
2021/08/21 06:12:41;;;;;;;;;;;21.30;91.60;;;;;;4804124;29;20045;-79
2021/08/21 06:15:07;;;;;;;8.80;5.13;;;21.40;91.50;;;;;;4823513;29;19937;-79
2021/08/21 06:17:33;;;;;;;8.57;5.32;;;21.40;91.10;;;;;;4840926;29;20102;-79
2021/08/21 06:19:59;;;;;;;7.40;4.72;;;21.50;90.80;;;;;;4818969;29;20030;-79
2021/08/21 06:22:25;;;;;;;8.95;5.03;;;21.50;90.50;;;;;;4829869;29;20076;-79
2021/08/21 06:24:52;;;;;;;16.08;5.45;;;21.60;90.60;;;;;;4817545;29;20038;-79
2021/08/21 06:27:18;;;;;;;9.75;5.32;;;21.70;90.30;;;;;;4821649;29;20040;-79
2021/08/21 06:29:43;;;;;;;9.20;4.63;;;21.80;90.10;;;;;;4818185;29;20058;-79
2021/08/21 06:32:09;;;;;;;14.60;4.30;;;21.90;90.20;;;;;;4830932;29;20041;-79
2021/08/21 06:34:35;;;;;;;6.70;4.82;;;22.00;88.80;;;;;;4813120;29;20026;-79
2021/08/21 06:37:01;;;;;;;9.77;4.82;;;22.00;88.90;;;;;;4818285;29;20042;-79
2021/08/21 06:39:27;;;;;;;11.57;5.15;;;22.10;88.30;;;;;;4845723;29;20041;-79
2021/08/21 06:41:53;;;;;;;9.48;5.30;;;22.20;88.00;;;;;;4833520;29;20041;-79
2021/08/21 06:44:19;;;;;;;6.80;4.85;;;22.40;87.50;;;;;;4809419;29;20191;-79
2021/08/21 06:46:45;;;;;;;8.50;4.57;;;22.50;87.50;;;;;;4820330;29;20038;-79
2021/08/21 06:49:11;;;;;;;12.73;5.13;;;22.60;86.10;;;;;;4831550;29;20030;-79
2021/08/21 06:51:37;;;;;;;5.60;4.40;;;22.70;86.50;;;;;;4813820;29;20326;-79
2021/08/21 06:54:03;;;;;;;7.10;4.40;;;22.80;85.20;;;;;;4824398;29;20198;-80
2021/08/21 06:56:29;;;;;;;11.43;4.95;;;22.90;85.50;;;;;;4820028;29;20047;-79
2021/08/21 06:58:55;;;;;;;7.95;5.38;;;22.90;85.40;;;;;;4830609;29;20047;-81
2021/08/21 07:01:21;;;;;;;8.13;4.82;;;23.00;84.50;;;;;;4821326;29;20018;-81
2021/08/21 07:03:46;;;;;;;10.57;4.88;;;23.10;83.20;;;;;;4836545;29;20034;-80
2021/08/21 07:06:12;;;;;;;8.95;4.95;;;23.10;83.30;;;;;;4809489;29;20035;-80
2021/08/21 07:08:38;;;;;;;10.15;5.10;;;23.20;83.40;;;;;;4818451;29;20123;-82
2021/08/21 07:11:04;;;;;;;11.32;4.50;;;23.30;83.20;;;;;;4827992;29;20026;-80
2021/08/21 07:13:29;;;;;;;7.78;5.20;;;23.40;82.90;;;;;;4836207;29;20026;-80
2021/08/21 07:15:55;;;;;;;7.70;6.30;;;23.40;81.70;;;;;;4837128;29;20033;-80
2021/08/21 07:18:21;;;;;;;9.27;3.92;;;23.50;81.20;;;;;;4821048;29;20060;-80
2021/08/21 07:20:47;;;;;;;11.60;5.18;;;23.50;81.30;;;;;;4820659;29;20143;-80
2021/08/21 07:23:12;;;;;;;8.55;5.00;;;23.70;80.80;;;;;;4821142;29;20030;-80
2021/08/21 07:25:38;;;;;;;6.38;4.45;;;23.80;79.20;;;;;;4820549;29;20041;-80
2021/08/21 07:28:04;;;;;;;8.82;4.82;;;23.90;80.30;;;;;;4814180;29;20146;-80
2021/08/21 07:30:30;;;;;;;8.32;4.80;;;24.10;80.20;;;;;;4807069;29;20038;-80
2021/08/21 07:32:56;;;;;;;11.77;5.10;;;24.10;79.00;;;;;;4817854;29;20084;-80
2021/08/21 07:35:22;;;;;;;9.18;5.43;;;24.30;78.40;;;;;;4817369;29;20078;-80
2021/08/21 07:37:47;;;;;;;8.10;5.05;;;24.40;79.60;;;;;;4803764;29;20107;-80
2021/08/21 07:40:14;;;;;;;10.25;5.43;;;24.50;79.10;;;;;;4798965;29;20039;-80
2021/08/21 07:42:40;;;;;;;8.68;4.55;;;24.70;78.40;;;;;;4798771;29;20035;-80
2021/08/21 07:45:07;;;;;;;9.20;5.00;;;24.80;78.20;;;;;;4799394;30;20053;-80
2021/08/21 07:47:33;;;;;;;12.52;4.75;;;24.90;77.60;;;;;;4800225;30;20092;-80
2021/08/21 07:49:59;;;;;;;5.60;4.40;;;25.00;76.30;;;;;;4800100;30;20039;-80
2021/08/21 07:52:25;;;;;;;7.00;4.77;;;25.00;76.30;;;;;;4814428;29;20037;-80
2021/08/21 07:54:50;;;;;;;11.07;4.53;;;25.20;76.30;;;;;;4798815;29;20213;-80
2021/08/21 07:57:16;;;;;;;6.68;4.55;;;25.30;74.70;;;;;;4798597;30;20035;-80
2021/08/21 07:59:42;;;;;;;14.77;5.18;;;25.30;73.60;;;;;;4814126;29;20392;-79
2021/08/21 08:02:09;;;;;;;9.82;5.13;;;25.40;74.30;;;;;;4803556;29;20350;-80
2021/08/21 08:04:36;;;;;;;6.07;4.68;;;25.60;73.20;;;;;;4814169;29;20094;-80
2021/08/21 08:07:02;;;;;;;11.98;4.75;;;25.80;72.50;;;;;;4821923;29;20039;-80
2021/08/21 08:09:28;;;;;;;6.17;3.80;;;26.00;73.20;;;;;;4801739;29;20110;-80
2021/08/21 08:11:55;;;;;;;7.60;3.92;;;26.00;71.50;;;;;;4798974;29;20034;-80
2021/08/21 08:14:21;;;;;;;9.10;4.10;;;26.00;69.20;;;;;;4799356;30;20047;-80
2021/08/21 08:16:46;;;;;;;9.02;3.75;;;26.00;68.10;;;;;;4784297;30;20100;-79
2021/08/21 08:19:12;;;;;;;6.20;4.10;;;25.90;68.50;;;;;;4784488;30;20047;-79
2021/08/21 08:21:38;;;;;;;9.40;4.53;;;26.10;68.00;;;;;;4799157;30;20038;-79
2021/08/21 08:24:04;;;;;;;6.82;3.90;;;26.10;70.10;;;;;;4784249;30;20227;-79
2021/08/21 08:26:30;;;;;;;13.65;6.05;;;26.20;66.60;;;;;;4800524;30;20027;-78
2021/08/21 08:28:56;;;;;;;4.75;3.47;;;26.20;66.30;;;;;;4784527;30;20045;-78
2021/08/21 08:31:22;;;;;;;4.50;3.13;;;26.40;66.60;;;;;;4805306;29;20281;-79
2021/08/21 08:33:48;;;;;;;8.43;4.03;;;26.50;67.00;;;;;;4821728;29;20223;-78
2021/08/21 08:36:13;;;;;;;7.40;3.83;;;26.70;65.60;;;;;;4826834;29;20042;-78
2021/08/21 08:38:39;;;;;;;7.53;3.40;;;26.90;67.50;;;;;;4814495;29;20031;-80
2021/08/21 08:41:10;;;;;;;7.32;3.50;;;27.10;64.90;;;;;;4814120;29;20046;-81
2021/08/21 08:43:36;;;;;;;10.73;4.25;;;27.20;64.10;;;;;;4814220;29;20040;-81
2021/08/21 08:46:03;;;;;;;11.90;4.10;;;27.10;62.90;;;;;;4813642;29;20059;-80
2021/08/21 08:48:33;;;;;;;7.35;3.33;;;27.00;65.30;;;;;;4813876;29;20322;-80
2021/08/21 08:51:00;;;;;;;6.78;3.40;;;27.00;65.30;;;;;;4821354;29;20215;-80
2021/08/21 08:53:26;;;;;;;4.85;3.70;;;27.20;64.30;;;;;;4816814;29;20251;-80
2021/08/21 08:55:51;;;;;;;11.55;3.72;;;27.40;63.50;;;;;;4816623;29;20027;-80
2021/08/21 08:58:17;;;;;;;3.90;3.08;;;27.30;61.70;;;;;;4816982;29;20019;-80
2021/08/21 09:00:43;;;;;;;6.28;3.53;;;27.20;63.80;;;;;;4816661;29;20043;-80
2021/08/21 09:03:21;;;;;;;;;;;27.30;64.00;;;;;;4802232;29;20058;-80
2021/08/21 09:05:47;;;;;;;5.57;3.42;;;27.50;63.90;;;;;;4801851;29;20100;-81
2021/08/21 09:08:27;;;;;;;6.25;3.58;;;27.70;62.60;;;;;;4810584;29;20030;-80
2021/08/21 09:10:55;;;;;;;8.35;3.28;;;27.70;60.20;;;;;;4829170;29;20054;-80
2021/08/21 09:13:22;;;;;;;6.55;3.40;;;27.60;63.40;;;;;;4828235;29;20034;-80
2021/08/21 09:15:54;;;;;;;4.00;2.97;;;27.50;61.70;;;;;;4819566;29;20042;-80
2021/08/21 09:18:28;;;;;;;9.45;3.58;;;27.60;63.60;;;;;;4817308;29;20041;-80
2021/08/21 09:20:59;;;;;;;7.43;3.28;;;27.70;62.90;;;;;;4834370;29;20069;-80
2021/08/21 09:23:44;;;;;;;5.25;3.13;;;27.70;61.00;;;;;;4816768;29;20364;-80
2021/08/21 09:26:14;;;;;;;6.20;3.28;;;27.80;62.60;;;;;;4808749;29;20027;-80
2021/08/21 09:28:45;;;;;;;4.25;3.22;;;27.90;62.10;;;;;;4816123;29;20384;-80
2021/08/21 09:31:24;;;;;;;14.85;3.97;;;28.00;63.50;;;;;;4818572;29;20033;-79
2021/08/21 09:33:55;;;;;;;5.97;3.47;;;28.30;62.30;;;;;;4801592;29;20038;-80
2021/08/21 09:36:31;;;;;;;6.32;3.20;;;28.40;62.30;;;;;;4828266;29;20080;-80
2021/08/21 09:38:59;;;;;;;7.47;3.10;;;28.60;61.70;;;;;;4828555;29;20045;-80
2021/08/21 09:41:25;;;;;;;9.93;3.50;;;28.50;60.80;;;;;;4802075;29;20067;-80
2021/08/21 09:44:11;;;;;;;9.82;3.35;;;28.60;58.20;;;;;;4822568;29;20101;-79
2021/08/21 09:46:37;;;;;;;5.57;3.03;;;28.50;60.70;;;;;;4839039;29;20191;-80
2021/08/21 09:49:06;;;;;;;6.23;3.73;;;28.60;59.50;;;;;;4849043;29;20042;-79
2021/08/21 09:51:47;;;;;;;7.40;3.42;;;28.70;58.90;;;;;;4833765;29;20118;-79
2021/08/21 09:54:19;;;;;;;5.43;3.40;;;28.70;59.90;;;;;;4818223;29;20038;-79
2021/08/21 09:56:53;;;;;;;4.85;2.58;;;28.70;59.30;;;;;;4833308;29;20066;-79
2021/08/21 09:59:32;;;;;;;5.63;2.33;;;28.60;58.00;;;;;;4834461;29;20038;-79
2021/08/21 10:01:58;;;;;;;5.80;2.63;;;28.70;58.40;;;;;;4831657;29;20054;-78
2021/08/21 10:04:24;;;;;;;3.78;2.65;;;28.80;58.70;;;;;;4816397;29;20030;-79
2021/08/21 10:06:50;;;;;;;4.47;3.27;;;28.90;56.60;;;;;;4815508;29;20065;-78
2021/08/21 10:09:19;;;;;;;4.37;2.80;;;28.80;56.90;;;;;;4815177;29;20035;-79
2021/08/21 10:11:44;;;;;;;3.03;2.20;;;28.90;58.00;;;;;;4830689;29;20356;-79
2021/08/21 10:14:12;;;;;;;2.70;2.10;;;28.90;54.50;;;;;;4815740;29;20031;-80
2021/08/21 10:16:41;;;;;;;4.25;2.38;;;28.90;54.80;;;;;;4816157;29;20069;-79
2021/08/21 10:19:07;;;;;;;10.50;2.70;;;28.90;56.10;;;;;;4816329;29;20168;-79
2021/08/21 10:21:33;;;;;;;10.37;2.40;;;28.90;54.90;;;;;;4819092;29;20034;-78
2021/08/21 10:23:59;;;;;;;3.77;2.17;;;29.00;55.10;;;;;;4819395;29;20023;-79
2021/08/21 10:26:40;;;;;;;2.95;2.50;;;29.00;57.30;;;;;;4818682;29;20031;-78
2021/08/21 10:29:12;;;;;;;3.38;2.50;;;29.00;55.90;;;;;;4819223;29;20133;-78
2021/08/21 10:31:44;;;;;;;8.27;2.47;;;29.10;54.20;;;;;;4819225;29;20102;-78
2021/08/21 10:34:12;;;;;;;5.85;2.60;;;29.20;56.10;;;;;;4801484;29;20039;-78
2021/08/21 10:36:49;;;;;;;6.13;2.58;;;29.30;52.90;;;;;;4815858;29;20043;-78
2021/08/21 10:39:32;;;;;;;3.97;2.40;;;29.20;51.60;;;;;;4803323;29;20075;-78
2021/08/21 10:42:25;;;;;;;4.10;2.80;;;29.00;53.80;;;;;;4819457;29;20033;-78
2021/08/21 10:44:52;;;;;;;3.17;1.92;;;29.10;54.40;;;;;;4819019;29;20042;-78
2021/08/21 10:47:30;;;;;;;7.10;2.30;;;29.10;55.90;;;;;;4819956;29;20046;-78
2021/08/21 10:49:58;;;;;;;5.50;2.05;;;29.30;54.70;;;;;;4820315;29;20076;-78
2021/08/21 10:52:54;;;;;;;2.90;2.45;;;29.50;54.80;;;;;;4809960;29;20053;-78
2021/08/21 10:55:19;;;;;;;;;;;29.60;53.50;;;;;;4767903;30;20044;-78
2021/08/21 10:58:02;;;;;;;4.10;2.63;;;29.70;52.60;;;;;;4767470;30;19916;-78
2021/08/21 11:00:40;;;;;;;3.60;2.50;;;29.80;52.10;;;;;;4767630;30;20052;-79
2021/08/21 11:03:10;;;;;;;2.85;2.50;;;29.90;53.20;;;;;;4767096;30;20044;-78
2021/08/21 11:06:09;;;;;;;4.75;2.75;;;30.00;52.60;;;;;;4782276;30;20039;-78
2021/08/21 11:08:38;;;;;;;4.47;3.22;;;29.60;52.60;;;;;;4767442;30;20031;-78
2021/08/21 11:11:28;;;;;;;2.53;2.10;;;29.60;52.30;;;;;;4767026;30;20036;-78
2021/08/21 11:14:22;;;;;;;2.92;2.25;;;29.80;54.80;;;;;;4766410;30;20296;-79
2021/08/21 11:16:53;;;;;;;4.30;2.20;;;30.00;53.00;;;;;;4767190;30;20342;-79
2021/08/21 11:19:28;;;;;;;6.45;2.55;;;29.80;50.80;;;;;;4766586;30;20270;-78
2021/08/21 11:22:12;;;;;;;5.20;1.90;;;29.90;51.70;;;;;;4766312;30;20050;-78
2021/08/21 11:24:39;;;;;;;6.15;2.30;;;30.20;54.00;;;;;;4781565;30;20522;-77
2021/08/21 11:27:30;;;;;;;5.47;2.25;;;30.30;51.40;;;;;;4766711;30;20031;-77
2021/08/21 11:30:09;;;;;;;3.30;2.63;;;30.40;50.90;;;;;;4765944;30;20103;-78
2021/08/21 11:32:53;;;;;;;3.50;2.22;;;30.70;53.30;;;;;;4783570;29;20043;-78
2021/08/21 11:35:32;;;;;;;3.72;2.47;;;30.70;52.30;;;;;;4803029;29;20095;-78
2021/08/21 11:38:01;;;;;;;2.72;2.30;;;30.60;51.20;;;;;;4819347;29;20110;-77
2021/08/21 11:40:35;;;;;;;3.45;2.42;;;30.60;51.80;;;;;;4833278;29;20118;-77
2021/08/21 11:43:02;;;;;;;6.13;2.42;;;30.60;51.70;;;;;;4817867;29;20293;-78
2021/08/21 11:45:28;;;;;;;4.15;2.40;;;30.70;50.70;;;;;;4817329;29;20087;-78
2021/08/21 11:47:55;;;;;;;6.05;2.30;;;30.50;51.20;;;;;;4817589;29;20253;-77
2021/08/21 11:50:28;;;;;;;;;;;30.40;50.90;;;;;;4817551;29;20360;-78
2021/08/21 11:52:56;;;;;;;3.95;2.40;;;30.40;50.40;;;;;;4816889;29;20044;-78
2021/08/21 11:55:23;;;;;;;3.50;2.60;;;30.50;50.50;;;;;;4823704;29;20114;-78
2021/08/21 11:57:50;;;;;;;3.58;2.30;;;30.50;52.20;;;;;;4850893;29;20328;-77
2021/08/21 12:00:27;;;;;;;5.43;2.17;;;30.70;50.90;;;;;;4835630;29;20029;-78
2021/08/21 12:02:59;;;;;;;3.85;2.70;;;30.50;51.30;;;;;;4842071;29;20037;-78
2021/08/21 12:05:43;;;;;;;6.03;2.47;;;30.50;49.50;;;;;;4816380;29;20041;-78
2021/08/21 12:08:18;;;;;;;3.40;2.03;;;30.60;49.10;;;;;;4814127;29;20050;-78
2021/08/21 12:10:52;;;;;;;3.53;2.20;;;30.80;49.30;;;;;;4819664;29;20039;-78
2021/08/21 12:13:34;;;;;;;3.92;2.35;;;30.80;46.90;;;;;;4818579;29;20571;-78
2021/08/21 12:16:14;;;;;;;4.15;2.67;;;30.70;46.90;;;;;;4817639;29;20227;-78
2021/08/21 12:18:42;;;;;;;4.00;2.08;;;30.60;47.50;;;;;;4816634;29;20054;-78
2021/08/21 12:21:15;;;;;;;2.47;2.10;;;30.50;48.70;;;;;;4818482;29;20031;-78
2021/08/21 12:23:43;;;;;;;4.43;2.22;;;30.50;46.30;;;;;;4799082;30;20034;-77
2021/08/21 12:26:10;;;;;;;4.20;2.85;;;30.40;48.20;;;;;;4799287;30;20043;-78
2021/08/21 12:28:44;;;;;;;4.43;2.08;;;30.40;47.60;;;;;;4789466;29;20402;-78
2021/08/21 12:31:16;;;;;;;2.97;2.03;;;30.40;48.30;;;;;;4802327;29;20080;-78
2021/08/21 12:33:45;;;;;;;2.85;2.30;;;30.60;46.40;;;;;;4830526;29;20034;-78
2021/08/21 12:36:21;;;;;;;4.13;2.50;;;30.80;47.70;;;;;;4835522;29;20328;-78
2021/08/21 12:39:27;;;;;;;4.72;3.47;;;30.90;46.30;;;;;;4809979;29;20230;-78
2021/08/21 12:42:02;;;;;;;3.63;2.00;;;31.20;46.90;;;;;;4750638;30;20119;-77
2021/08/21 12:44:39;;;;;;;3.10;2.40;;;31.30;47.50;;;;;;4765582;30;20035;-78
2021/08/21 12:47:05;;;;;;;4.07;2.10;;;31.40;49.40;;;;;;4764968;30;20059;-78
2021/08/21 12:49:36;;;;;;;2.50;2.03;;;31.50;46.50;;;;;;4765765;30;20039;-78
2021/08/21 12:52:07;;;;;;;4.60;2.45;;;31.50;46.40;;;;;;4765389;30;20036;-78
2021/08/21 12:54:38;;;;;;;2.80;2.08;;;31.50;45.40;;;;;;4765231;30;20064;-78
2021/08/21 12:57:20;;;;;;;2.50;1.95;;;31.50;45.30;;;;;;4765638;30;20250;-78
2021/08/21 12:59:48;;;;;;;2.40;2.15;;;31.30;46.50;;;;;;4750200;30;20044;-78
2021/08/21 13:02:18;;;;;;;3.30;2.38;;;31.30;46.50;;;;;;4765293;30;20040;-78
2021/08/21 13:04:56;;;;;;;5.32;2.10;;;31.30;46.00;;;;;;4780152;30;20039;-77
2021/08/21 13:07:38;;;;;;;4.53;1.90;;;31.30;46.60;;;;;;4750421;30;20031;-77
2021/08/21 13:10:05;;;;;;;3.00;2.33;;;31.30;44.20;;;;;;4767305;30;20088;-78
2021/08/21 13:12:30;;;;;;;2.95;2.20;;;30.90;44.10;;;;;;4790539;29;20329;-78
2021/08/21 13:14:56;;;;;;;7.07;2.10;;;30.80;46.70;;;;;;4834625;29;20226;-78
2021/08/21 13:17:22;;;;;;;2.60;1.83;;;30.90;45.00;;;;;;4822969;29;20082;-77
2021/08/21 13:19:47;;;;;;;3.03;2.30;;;31.00;46.20;;;;;;4809968;29;20039;-78
2021/08/21 13:22:13;;;;;;;4.70;2.47;;;31.20;47.00;;;;;;4828192;29;20259;-77
2021/08/21 13:24:39;;;;;;;5.03;2.17;;;31.20;46.10;;;;;;4816871;29;20031;-78
2021/08/21 13:27:05;;;;;;;4.93;2.20;;;31.20;47.00;;;;;;4817209;29;20027;-77
2021/08/21 13:29:30;;;;;;;4.43;2.50;;;31.30;47.20;;;;;;4815843;29;20042;-77
2021/08/21 13:31:56;;;;;;;2.97;2.17;;;31.30;46.20;;;;;;4816899;29;20296;-78
2021/08/21 13:34:22;;;;;;;3.50;2.40;;;31.40;46.20;;;;;;4815965;29;20041;-78
2021/08/21 13:36:48;;;;;;;2.47;2.13;;;31.40;46.60;;;;;;4817473;29;20027;-78
2021/08/21 13:39:14;;;;;;;4.78;2.22;;;31.20;46.50;;;;;;4816184;29;20311;-78
2021/08/21 13:41:40;;;;;;;4.60;2.53;;;31.10;45.10;;;;;;4815714;29;20064;-77
2021/08/21 13:44:06;;;;;;;7.33;2.17;;;31.00;45.80;;;;;;4815950;29;20031;-78
2021/08/21 13:46:34;;;;;;;6.43;2.20;;;31.00;47.40;;;;;;4815611;29;20072;-78
2021/08/21 13:49:02;;;;;;;5.85;2.42;;;30.90;47.50;;;;;;4817154;29;20039;-78
2021/08/21 13:51:28;;;;;;;4.38;2.47;;;30.90;45.70;;;;;;4816238;29;20049;-78
2021/08/21 13:53:53;;;;;;;3.47;2.10;;;30.80;47.90;;;;;;4812843;29;20038;-78
2021/08/21 13:56:19;;;;;;;4.20;2.60;;;30.90;46.70;;;;;;4831195;29;20329;-78
2021/08/21 13:58:45;;;;;;;5.07;2.50;;;30.90;46.80;;;;;;4817007;29;20077;-78
2021/08/21 14:01:10;;;;;;;3.23;2.93;;;31.00;46.50;;;;;;4816751;29;20022;-78
2021/08/21 14:03:36;;;;;;;4.10;2.40;;;30.90;46.90;;;;;;4807858;29;20069;-78
2021/08/21 14:06:04;;;;;;;2.33;2.00;;;31.00;46.20;;;;;;4812783;29;20107;-78
2021/08/21 14:08:30;;;;;;;5.28;2.40;;;31.10;47.70;;;;;;4812636;29;20200;-77
2021/08/21 14:10:56;;;;;;;5.13;2.63;;;31.20;47.00;;;;;;4797831;30;20033;-78
2021/08/21 14:13:21;;;;;;;2.20;1.53;;;31.10;46.10;;;;;;4812951;29;20039;-78
2021/08/21 14:15:47;;;;;;;3.57;2.00;;;31.10;46.40;;;;;;4812495;29;20035;-78
2021/08/21 14:18:13;;;;;;;2.73;2.50;;;31.10;45.30;;;;;;4833340;29;20034;-78
2021/08/21 14:20:40;;;;;;;4.65;2.33;;;30.90;46.00;;;;;;4834000;29;20042;-78
2021/08/21 14:23:07;;;;;;;;;;;31.00;45.80;;;;;;4834571;29;20039;-78
2021/08/21 14:25:33;;;;;;;3.88;2.10;;;30.90;47.30;;;;;;4834127;29;19909;-77
2021/08/21 14:27:58;;;;;;;4.93;2.17;;;31.10;46.50;;;;;;4818905;29;20105;-78
2021/08/21 14:30:24;;;;;;;3.87;2.70;;;31.20;47.70;;;;;;4833701;29;20034;-76
2021/08/21 14:32:51;;;;;;;4.87;2.30;;;31.30;45.30;;;;;;4832523;29;20038;-76
2021/08/21 14:35:17;;;;;;;3.20;2.28;;;31.30;44.60;;;;;;4832600;29;20117;-76
2021/08/21 14:37:43;;;;;;;4.60;2.10;;;31.20;45.90;;;;;;4832740;29;20046;-76
2021/08/21 14:40:09;;;;;;;4.17;2.43;;;31.10;45.50;;;;;;4833335;29;20066;-78
2021/08/21 14:42:35;;;;;;;10.63;2.40;;;31.00;46.10;;;;;;4815670;29;20032;-78
2021/08/21 14:45:01;;;;;;;2.57;2.07;;;30.90;44.80;;;;;;4815612;29;20234;-78
2021/08/21 14:47:26;;;;;;;5.07;2.50;;;30.90;45.90;;;;;;4829194;29;20054;-76
2021/08/21 14:49:52;;;;;;;5.97;2.37;;;30.90;45.30;;;;;;4833727;29;20038;-76
2021/08/21 14:52:18;;;;;;;4.10;2.53;;;31.00;46.10;;;;;;4820794;29;20034;-76
2021/08/21 14:54:44;;;;;;;5.60;2.20;;;31.00;44.40;;;;;;4824840;29;20039;-78
2021/08/21 14:57:09;;;;;;;5.43;2.10;;;30.90;45.00;;;;;;4825872;29;20057;-78
2021/08/21 14:59:35;;;;;;;9.60;2.80;;;30.80;45.00;;;;;;4823338;29;20062;-78
2021/08/21 15:02:01;;;;;;;5.37;2.53;;;30.70;45.10;;;;;;4819788;29;20266;-78
2021/08/21 15:04:27;;;;;;;4.57;1.93;;;30.80;46.40;;;;;;4817418;29;20038;-78
2021/08/21 15:06:53;;;;;;;2.72;2.53;;;30.80;45.20;;;;;;4824748;29;20035;-78
2021/08/21 15:09:18;;;;;;;3.10;2.63;;;30.90;46.20;;;;;;4827251;29;20042;-77
2021/08/21 15:11:44;;;;;;;3.27;2.10;;;30.90;46.00;;;;;;4831366;29;20046;-78
2021/08/21 15:14:10;;;;;;;5.63;2.50;;;30.90;44.80;;;;;;4818545;29;20046;-78
2021/08/21 15:16:36;;;;;;;2.43;2.23;;;30.80;47.10;;;;;;4824129;29;20054;-78
2021/08/21 15:19:04;;;;;;;3.60;2.33;;;30.80;46.50;;;;;;4811526;29;20114;-78
2021/08/21 15:21:30;;;;;;;2.78;2.22;;;30.90;45.00;;;;;;4812473;29;20090;-78
2021/08/21 15:23:56;;;;;;;7.13;2.47;;;30.80;47.00;;;;;;4824225;29;20079;-78
2021/08/21 15:26:23;;;;;;;4.03;2.40;;;30.80;46.10;;;;;;4829704;29;20282;-78
2021/08/21 15:28:49;;;;;;;3.90;2.60;;;30.60;44.90;;;;;;4807746;29;20042;-77
2021/08/21 15:31:16;;;;;;;3.30;2.20;;;30.50;46.90;;;;;;4817809;29;20038;-78
2021/08/21 15:33:42;;;;;;;5.38;2.63;;;30.50;46.70;;;;;;4822620;29;20102;-78
2021/08/21 15:36:11;;;;;;;7.77;2.20;;;30.40;46.80;;;;;;4821413;29;20031;-78
2021/08/21 15:38:37;;;;;;;3.78;2.80;;;30.30;46.80;;;;;;4835963;29;20105;-78
2021/08/21 15:41:03;;;;;;;2.85;2.53;;;30.20;48.60;;;;;;4812340;29;20323;-78
2021/08/21 15:43:30;;;;;;;5.38;2.20;;;30.10;47.60;;;;;;4818875;29;20023;-78